Time;durP1;ratioP1;P1;durP2;ratioP2;P2;SDS_P1;SDS_P2;PMS_P1;PMS_P2;Temp;Humidity;BMP_temperature;BMP_pressure;BME280_temperature;BME280_humidity;BME280_pressure;Samples;Min_cycle;Max_cycle;Signal;HPM_P1;HPM_P2
2022/07/22 00:00:50;;;;;;;1.25;0.85;;;23.90;59.10;;;;;;5052664;28;20175;-67
2022/07/22 00:03:15;;;;;;;2.47;1.23;;;23.90;59.00;;;;;;5052588;28;20167;-67
2022/07/22 00:05:41;;;;;;;2.90;1.17;;;23.90;58.90;;;;;;5051641;28;20584;-67
2022/07/22 00:08:06;;;;;;;1.40;0.70;;;23.90;58.90;;;;;;5052244;28;20229;-66
2022/07/22 00:10:32;;;;;;;1.48;0.90;;;23.90;59.00;;;;;;5052205;28;20671;-67
2022/07/22 00:12:57;;;;;;;1.60;1.05;;;23.80;58.90;;;;;;5051575;28;20700;-67
2022/07/22 00:15:23;;;;;;;1.00;0.80;;;23.80;59.00;;;;;;5052301;28;20185;-67
2022/07/22 00:17:49;;;;;;;1.80;0.90;;;23.80;59.00;;;;;;5052595;28;20177;-68
2022/07/22 00:20:14;;;;;;;1.33;1.00;;;23.80;59.00;;;;;;5051635;28;20258;-67
2022/07/22 00:22:40;;;;;;;2.72;0.90;;;23.80;59.00;;;;;;5052221;28;20167;-68
2022/07/22 00:25:06;;;;;;;1.05;0.70;;;23.80;59.00;;;;;;5051764;28;20175;-67
2022/07/22 00:27:31;;;;;;;1.88;0.88;;;23.80;59.10;;;;;;5051757;28;20183;-66
2022/07/22 00:29:57;;;;;;;2.33;0.93;;;23.80;59.00;;;;;;5049675;28;20221;-67
2022/07/22 00:32:22;;;;;;;2.78;1.05;;;23.80;59.10;;;;;;5052448;28;20240;-66
2022/07/22 00:34:48;;;;;;;1.98;1.00;;;23.80;59.00;;;;;;5051232;28;20694;-68
2022/07/22 00:37:13;;;;;;;2.05;0.80;;;23.80;59.00;;;;;;5052004;28;20175;-68
2022/07/22 00:39:39;;;;;;;1.52;0.88;;;23.80;59.00;;;;;;5052139;28;20179;-67
2022/07/22 00:42:04;;;;;;;1.92;1.10;;;23.80;59.10;;;;;;5051603;28;20174;-67
2022/07/22 00:44:30;;;;;;;2.28;1.20;;;23.80;59.00;;;;;;5052433;28;20174;-67
2022/07/22 00:46:56;;;;;;;1.50;0.80;;;23.70;58.90;;;;;;5051714;28;20616;-67
2022/07/22 00:49:21;;;;;;;2.42;0.90;;;23.70;58.90;;;;;;5051575;28;20171;-67
2022/07/22 00:51:47;;;;;;;2.35;0.90;;;23.70;59.00;;;;;;5052152;28;20167;-67
2022/07/22 00:54:12;;;;;;;1.38;0.93;;;23.70;59.00;;;;;;5051720;28;20344;-67
2022/07/22 00:56:38;;;;;;;2.08;1.10;;;23.70;59.00;;;;;;5051510;28;20198;-67
2022/07/22 00:59:05;;;;;;;3.03;1.08;;;23.70;59.00;;;;;;5052062;28;20565;-67
2022/07/22 01:01:30;;;;;;;1.73;1.02;;;23.70;59.00;;;;;;5052005;28;20183;-67
2022/07/22 01:03:56;;;;;;;1.13;0.88;;;23.70;58.90;;;;;;5051220;28;20220;-69
2022/07/22 01:06:21;;;;;;;1.88;0.82;;;23.70;58.90;;;;;;5051884;28;20202;-67
2022/07/22 01:08:47;;;;;;;2.55;0.80;;;23.70;58.90;;;;;;5051078;28;20258;-68
2022/07/22 01:11:17;;;;;;;1.20;1.10;;;23.70;58.90;;;;;;5051929;28;20168;-67
2022/07/22 01:13:43;;;;;;;3.55;0.98;;;23.80;59.00;;;;;;5051919;28;20163;-67
2022/07/22 01:16:09;;;;;;;1.67;1.10;;;23.70;58.90;;;;;;5050870;28;20184;-67
2022/07/22 01:18:36;;;;;;;1.20;1.00;;;23.70;58.90;;;;;;5051683;28;20254;-67
2022/07/22 01:21:01;;;;;;;1.05;0.90;;;23.70;58.90;;;;;;5051433;28;20544;-67
2022/07/22 01:23:27;;;;;;;1.58;0.80;;;23.70;58.90;;;;;;5051064;28;20178;-67
2022/07/22 01:25:53;;;;;;;3.75;1.27;;;23.60;58.90;;;;;;5051658;28;20669;-67
2022/07/22 01:28:18;;;;;;;0.95;0.90;;;23.70;58.90;;;;;;5051922;28;20171;-66
2022/07/22 01:30:44;;;;;;;2.33;1.33;;;23.70;58.90;;;;;;5050897;28;20171;-67
2022/07/22 01:33:09;;;;;;;1.75;0.70;;;23.70;58.90;;;;;;5051661;28;20171;-67
2022/07/22 01:35:35;;;;;;;2.00;0.98;;;23.60;58.90;;;;;;5052676;28;20258;-67
2022/07/22 01:38:00;;;;;;;1.33;0.90;;;23.70;58.90;;;;;;5054221;28;20207;-68
2022/07/22 01:40:26;;;;;;;1.02;0.68;;;23.60;59.50;;;;;;5055647;28;20171;-67
2022/07/22 01:42:52;;;;;;;1.08;0.98;;;23.60;58.90;;;;;;5055208;28;20612;-67
2022/07/22 01:45:17;;;;;;;1.52;0.90;;;23.60;58.90;;;;;;5051547;28;20544;-67
2022/07/22 01:47:43;;;;;;;2.20;1.00;;;23.60;58.90;;;;;;5054918;28;20641;-67
2022/07/22 01:50:09;;;;;;;0.82;0.82;;;23.60;58.90;;;;;;5054946;28;20171;-66
2022/07/22 01:52:35;;;;;;;1.60;1.08;;;23.60;58.90;;;;;;5054261;28;20210;-66
2022/07/22 01:55:00;;;;;;;1.63;0.82;;;23.70;58.90;;;;;;5054709;28;20246;-66
2022/07/22 01:57:26;;;;;;;1.50;0.95;;;23.60;58.90;;;;;;5054667;28;20163;-66
2022/07/22 01:59:51;;;;;;;2.33;0.80;;;23.60;58.90;;;;;;5054265;28;20175;-67
2022/07/22 02:02:17;;;;;;;0.75;0.75;;;23.60;58.90;;;;;;5054822;28;20195;-67
2022/07/22 02:04:42;;;;;;;1.33;0.90;;;23.60;58.90;;;;;;5054657;28;20224;-67
2022/07/22 02:07:08;;;;;;;0.85;0.70;;;23.60;58.90;;;;;;5053877;28;20207;-67
2022/07/22 02:09:33;;;;;;;2.38;1.13;;;23.60;58.90;;;;;;5054879;28;20171;-67
2022/07/22 02:11:59;;;;;;;1.38;0.80;;;23.60;58.90;;;;;;5054616;28;20176;-66
2022/07/22 02:14:24;;;;;;;0.90;0.90;;;23.60;59.00;;;;;;5054308;28;20171;-67
2022/07/22 02:16:50;;;;;;;2.13;0.90;;;23.60;59.00;;;;;;5054542;28;20164;-67
2022/07/22 02:19:16;;;;;;;1.38;0.80;;;23.60;59.00;;;;;;5053821;28;20167;-68
2022/07/22 02:21:41;;;;;;;3.05;1.10;;;23.60;58.90;;;;;;5053952;28;20175;-67
2022/07/22 02:24:07;;;;;;;1.08;0.90;;;23.60;59.00;;;;;;5053545;28;20544;-67
2022/07/22 02:26:33;;;;;;;1.63;1.08;;;23.60;59.00;;;;;;5052831;28;20558;-66
2022/07/22 02:28:58;;;;;;;0.90;0.90;;;23.60;59.00;;;;;;5053276;28;20662;-67
2022/07/22 02:31:24;;;;;;;1.30;0.90;;;23.50;58.90;;;;;;5053514;28;20740;-67
2022/07/22 02:33:49;;;;;;;2.13;1.10;;;23.60;59.00;;;;;;5052379;28;20171;-68
2022/07/22 02:36:15;;;;;;;2.00;1.23;;;23.50;58.90;;;;;;5053045;28;20596;-67
2022/07/22 02:38:40;;;;;;;1.50;0.88;;;23.60;59.00;;;;;;5052922;28;20621;-68
2022/07/22 02:41:06;;;;;;;2.05;0.93;;;23.50;58.90;;;;;;5052166;28;20167;-66
2022/07/22 02:43:31;;;;;;;2.33;1.30;;;23.50;58.90;;;;;;5053263;28;20175;-67
2022/07/22 02:45:57;;;;;;;2.45;1.13;;;23.60;59.00;;;;;;5052682;28;20542;-66
2022/07/22 02:48:22;;;;;;;1.25;1.13;;;23.50;58.90;;;;;;5051503;28;20171;-66
2022/07/22 02:50:48;;;;;;;3.13;1.33;;;23.50;58.90;;;;;;5052419;28;20617;-66
2022/07/22 02:53:14;;;;;;;1.52;0.88;;;23.50;58.90;;;;;;5052729;28;20167;-66
2022/07/22 02:55:39;;;;;;;1.45;0.98;;;23.50;58.90;;;;;;5051490;28;20226;-67
2022/07/22 02:58:06;;;;;;;1.33;1.00;;;23.50;58.90;;;;;;5052801;28;20223;-66
2022/07/22 03:00:31;;;;;;;1.52;1.02;;;23.50;58.90;;;;;;5052973;28;20222;-67
2022/07/22 03:02:57;;;;;;;1.42;0.82;;;23.50;59.00;;;;;;5051767;28;20235;-67
2022/07/22 03:05:22;;;;;;;1.95;0.90;;;23.50;58.90;;;;;;5052497;28;20171;-66
2022/07/22 03:07:48;;;;;;;1.80;0.80;;;23.50;59.00;;;;;;5052683;28;20567;-68
2022/07/22 03:10:14;;;;;;;2.45;1.10;;;23.50;59.00;;;;;;5051960;28;20167;-67
2022/07/22 03:12:39;;;;;;;2.17;1.05;;;23.50;59.00;;;;;;5052519;28;20249;-68
2022/07/22 03:15:05;;;;;;;1.27;1.15;;;23.50;59.60;;;;;;5052557;28;20205;-69
2022/07/22 03:17:34;;;;;;;1.10;1.00;;;23.50;59.00;;;;;;5051794;28;20179;-67
2022/07/22 03:20:02;;;;;;;1.27;0.77;;;23.50;59.00;;;;;;5049707;28;20186;-69
2022/07/22 03:22:27;;;;;;;1.70;1.10;;;23.50;59.00;;;;;;5052012;28;20179;-68
2022/07/22 03:24:53;;;;;;;1.20;0.90;;;23.50;59.00;;;;;;5052376;28;20193;-68
2022/07/22 03:27:18;;;;;;;0.90;0.75;;;23.50;59.00;;;;;;5052002;28;20632;-67
2022/07/22 03:29:44;;;;;;;1.33;0.85;;;23.50;59.10;;;;;;5051172;28;20270;-67
2022/07/22 03:32:10;;;;;;;1.27;0.98;;;23.50;59.00;;;;;;5052101;28;20175;-67
2022/07/22 03:34:35;;;;;;;1.20;1.00;;;23.50;59.00;;;;;;5052275;28;20282;-67
2022/07/22 03:37:01;;;;;;;2.45;1.20;;;23.50;59.00;;;;;;5051092;28;20182;-67
2022/07/22 03:39:26;;;;;;;1.08;0.98;;;23.50;59.10;;;;;;5052320;28;20284;-67
2022/07/22 03:41:52;;;;;;;2.72;1.13;;;23.40;59.10;;;;;;5051927;28;20262;-67
2022/07/22 03:44:17;;;;;;;2.38;1.08;;;23.40;59.00;;;;;;5051274;28;20259;-67
2022/07/22 03:46:43;;;;;;;1.52;0.98;;;23.50;59.00;;;;;;5051874;28;20365;-66
2022/07/22 03:49:08;;;;;;;1.13;0.80;;;23.50;59.10;;;;;;5052003;28;20326;-66
2022/07/22 03:51:34;;;;;;;1.10;0.93;;;23.40;59.00;;;;;;5051005;28;20342;-66
2022/07/22 03:53:59;;;;;;;1.10;1.00;;;23.40;59.00;;;;;;5051634;28;20680;-66
2022/07/22 03:56:25;;;;;;;1.48;1.08;;;23.40;59.00;;;;;;5051718;28;20732;-66
2022/07/22 03:58:50;;;;;;;1.10;0.93;;;23.40;59.10;;;;;;5050070;28;20339;-67
2022/07/22 04:01:16;;;;;;;3.05;1.27;;;23.40;59.10;;;;;;5051720;28;20250;-68
2022/07/22 04:03:41;;;;;;;1.63;1.00;;;23.40;59.10;;;;;;5051390;28;20263;-67
2022/07/22 04:06:07;;;;;;;1.95;0.98;;;23.40;59.10;;;;;;5050693;28;20332;-67
2022/07/22 04:08:32;;;;;;;1.35;0.90;;;23.40;59.10;;;;;;5051528;28;20271;-67
2022/07/22 04:10:58;;;;;;;2.33;1.17;;;23.40;59.10;;;;;;5048693;28;20187;-67
2022/07/22 04:13:23;;;;;;;1.42;1.00;;;23.40;59.10;;;;;;5050847;28;20167;-67
2022/07/22 04:15:49;;;;;;;1.38;1.27;;;23.40;59.10;;;;;;5051484;28;20168;-67
2022/07/22 04:18:17;;;;;;;2.08;1.30;;;23.40;59.10;;;;;;5051159;28;20171;-67
2022/07/22 04:20:43;;;;;;;2.65;1.35;;;23.40;59.10;;;;;;5050377;28;20174;-67
2022/07/22 04:23:08;;;;;;;1.70;1.15;;;23.40;59.10;;;;;;5051356;28;20254;-66
2022/07/22 04:25:34;;;;;;;1.38;1.10;;;23.40;59.10;;;;;;5051068;28;20561;-67
2022/07/22 04:27:59;;;;;;;1.80;1.25;;;23.40;59.10;;;;;;5050700;28;20190;-67
2022/07/22 04:30:25;;;;;;;0.93;0.88;;;23.40;59.10;;;;;;5051263;28;20198;-66
2022/07/22 04:32:51;;;;;;;1.75;1.40;;;23.40;59.10;;;;;;5050263;28;20200;-67
2022/07/22 04:35:16;;;;;;;2.10;1.20;;;23.30;59.00;;;;;;5051240;28;20178;-67
2022/07/22 04:37:42;;;;;;;1.95;1.50;;;23.40;59.10;;;;;;5050914;28;20233;-68
2022/07/22 04:40:08;;;;;;;2.33;1.20;;;23.40;59.40;;;;;;5050479;28;20254;-68
2022/07/22 04:42:33;;;;;;;1.83;1.20;;;23.40;59.10;;;;;;5050728;28;20253;-66
2022/07/22 04:44:59;;;;;;;1.25;0.98;;;23.40;59.10;;;;;;5051004;28;20643;-67
2022/07/22 04:47:24;;;;;;;1.38;1.05;;;23.30;59.00;;;;;;5050122;28;20203;-66
2022/07/22 04:49:50;;;;;;;1.85;1.33;;;23.30;59.00;;;;;;5051141;28;20174;-66
2022/07/22 04:52:16;;;;;;;1.10;1.00;;;23.30;59.00;;;;;;5050834;28;20178;-66
2022/07/22 04:54:41;;;;;;;1.00;1.00;;;23.40;59.00;;;;;;5050084;28;20229;-66
2022/07/22 04:57:07;;;;;;;1.50;1.15;;;23.30;59.00;;;;;;5051065;28;20174;-67
2022/07/22 04:59:32;;;;;;;2.00;1.20;;;23.30;59.00;;;;;;5051100;28;20167;-67
2022/07/22 05:01:58;;;;;;;2.80;1.20;;;23.30;59.00;;;;;;5049961;28;20228;-67
2022/07/22 05:04:23;;;;;;;3.47;1.30;;;23.30;59.00;;;;;;5051082;28;20261;-67
2022/07/22 05:06:49;;;;;;;2.03;1.60;;;23.30;59.00;;;;;;5050879;28;20285;-68
2022/07/22 05:09:14;;;;;;;1.17;1.00;;;23.30;59.00;;;;;;5050212;28;20171;-67
2022/07/22 05:11:40;;;;;;;1.92;1.10;;;23.30;59.00;;;;;;5053482;28;20194;-67
2022/07/22 05:14:05;;;;;;;2.08;1.20;;;23.30;59.00;;;;;;5054981;28;20174;-67
2022/07/22 05:16:31;;;;;;;2.35;1.00;;;23.30;58.90;;;;;;5053937;28;20266;-67
2022/07/22 05:18:56;;;;;;;1.67;1.05;;;23.30;58.90;;;;;;5054425;28;20183;-68
2022/07/22 05:21:22;;;;;;;1.45;1.13;;;23.30;58.90;;;;;;5054567;28;20190;-68
2022/07/22 05:23:47;;;;;;;1.10;1.00;;;23.30;58.90;;;;;;5053604;28;20178;-67
2022/07/22 05:26:13;;;;;;;2.08;1.25;;;23.30;58.90;;;;;;5054420;28;20203;-67
2022/07/22 05:28:38;;;;;;;1.23;1.08;;;23.30;58.90;;;;;;5051944;28;20171;-67
2022/07/22 05:31:04;;;;;;;2.83;1.10;;;23.40;58.90;;;;;;5054156;28;20181;-66
2022/07/22 05:33:30;;;;;;;1.83;0.98;;;23.30;58.90;;;;;;5054894;28;20171;-67
2022/07/22 05:35:55;;;;;;;2.25;1.27;;;23.30;58.90;;;;;;5054898;28;20179;-68
2022/07/22 05:38:21;;;;;;;2.85;1.10;;;23.30;58.90;;;;;;5054467;28;20551;-68
2022/07/22 05:40:46;;;;;;;1.50;0.90;;;23.30;58.90;;;;;;5054517;28;20510;-67
2022/07/22 05:43:12;;;;;;;2.55;1.30;;;23.30;58.90;;;;;;5053828;28;20178;-67
2022/07/22 05:45:37;;;;;;;2.40;1.17;;;23.30;58.90;;;;;;5054421;28;20191;-67
2022/07/22 05:48:03;;;;;;;1.83;1.00;;;23.30;58.90;;;;;;5054454;28;20182;-66
2022/07/22 05:50:28;;;;;;;2.88;1.35;;;23.30;58.90;;;;;;5053888;28;20175;-66
2022/07/22 05:52:54;;;;;;;3.80;1.90;;;23.40;58.90;;;;;;5054189;28;20652;-66
2022/07/22 05:55:19;;;;;;;1.73;1.08;;;23.30;58.80;;;;;;5054261;28;20203;-66
2022/07/22 05:57:45;;;;;;;3.15;1.40;;;23.40;58.80;;;;;;5053663;28;20175;-68
2022/07/22 06:00:11;;;;;;;4.80;1.50;;;23.30;58.80;;;;;;5054256;28;20252;-66
2022/07/22 06:02:36;;;;;;;4.20;1.67;;;23.40;58.90;;;;;;5054434;28;20578;-67
2022/07/22 06:05:02;;;;;;;5.85;1.60;;;23.30;58.90;;;;;;5053521;28;20198;-67
2022/07/22 06:07:28;;;;;;;3.78;1.42;;;23.40;58.90;;;;;;5054355;28;20245;-67
2022/07/22 06:09:53;;;;;;;3.50;1.42;;;23.40;58.90;;;;;;5054117;28;20544;-66
2022/07/22 06:12:19;;;;;;;5.32;1.35;;;23.40;59.00;;;;;;5053440;28;20217;-66
2022/07/22 06:14:46;;;;;;;3.22;1.20;;;23.40;59.10;;;;;;5054110;28;20173;-67
2022/07/22 06:17:11;;;;;;;2.92;1.60;;;23.40;59.10;;;;;;5053861;28;20609;-67
2022/07/22 06:19:37;;;;;;;3.83;1.45;;;23.40;58.90;;;;;;5053460;28;20172;-67
2022/07/22 06:22:03;;;;;;;7.22;2.33;;;23.30;58.80;;;;;;5052774;28;20663;-66
2022/07/22 06:24:28;;;;;;;9.10;2.15;;;23.30;58.80;;;;;;5053895;28;20254;-66
2022/07/22 06:26:54;;;;;;;2.28;1.42;;;23.30;58.80;;;;;;5052780;28;20211;-67
2022/07/22 06:29:19;;;;;;;4.68;1.60;;;23.20;58.80;;;;;;5054159;28;20199;-67
2022/07/22 06:31:45;;;;;;;3.15;1.40;;;23.20;58.90;;;;;;5053991;28;20265;-66
2022/07/22 06:34:10;;;;;;;7.50;2.00;;;23.20;58.90;;;;;;5053672;28;20258;-67
2022/07/22 06:36:36;;;;;;;3.35;1.52;;;23.30;58.90;;;;;;5054342;28;20186;-67
2022/07/22 06:39:01;;;;;;;4.22;1.52;;;23.30;58.90;;;;;;5053980;28;20328;-67
2022/07/22 06:41:27;;;;;;;3.25;1.10;;;23.20;58.90;;;;;;5053654;28;20639;-67
2022/07/22 06:43:52;;;;;;;4.10;1.67;;;23.20;58.90;;;;;;5053814;28;20171;-67
2022/07/22 06:46:18;;;;;;;2.35;1.50;;;23.30;59.00;;;;;;5053576;28;20211;-67
2022/07/22 06:48:43;;;;;;;2.95;1.42;;;23.30;59.00;;;;;;5053413;28;20503;-66
2022/07/22 06:51:09;;;;;;;3.75;1.50;;;23.20;58.90;;;;;;5053976;28;20175;-66
2022/07/22 06:53:34;;;;;;;2.72;1.10;;;23.20;59.00;;;;;;5053146;28;20174;-66
2022/07/22 06:56:00;;;;;;;2.97;1.48;;;23.20;59.00;;;;;;5053410;28;20235;-65
2022/07/22 06:58:26;;;;;;;1.75;1.20;;;23.30;59.00;;;;;;5053717;28;20174;-66
2022/07/22 07:00:51;;;;;;;2.83;1.45;;;23.30;59.00;;;;;;5052703;28;20182;-66
2022/07/22 07:03:17;;;;;;;2.35;1.45;;;23.30;59.00;;;;;;5053792;28;20178;-66
2022/07/22 07:05:42;;;;;;;2.72;1.40;;;23.30;59.00;;;;;;5053205;28;20213;-66
2022/07/22 07:08:08;;;;;;;5.22;1.50;;;23.20;58.90;;;;;;5052830;28;20183;-67
2022/07/22 07:10:33;;;;;;;2.95;1.65;;;23.30;59.00;;;;;;5053639;28;20199;-66
2022/07/22 07:12:59;;;;;;;4.22;1.60;;;23.30;58.90;;;;;;5053297;28;20550;-66
2022/07/22 07:15:25;;;;;;;3.30;1.10;;;23.20;58.90;;;;;;5052836;28;20203;-66
2022/07/22 07:17:51;;;;;;;3.33;1.30;;;23.30;58.80;;;;;;5053082;28;20179;-67
2022/07/22 07:20:17;;;;;;;2.40;1.25;;;23.30;58.80;;;;;;5053386;28;20206;-66
2022/07/22 07:22:42;;;;;;;1.90;1.48;;;23.30;58.80;;;;;;5052345;28;20218;-68
2022/07/22 07:25:08;;;;;;;2.53;1.23;;;23.30;58.80;;;;;;5053155;28;20183;-66
2022/07/22 07:27:34;;;;;;;2.75;1.42;;;23.40;58.80;;;;;;5053109;28;20206;-66
2022/07/22 07:29:59;;;;;;;3.55;1.60;;;23.40;58.80;;;;;;5052198;28;20714;-66
2022/07/22 07:32:25;;;;;;;1.70;1.20;;;23.40;58.80;;;;;;5053137;28;20175;-67
2022/07/22 07:34:50;;;;;;;3.70;1.35;;;23.40;58.60;;;;;;5052835;28;20224;-69
2022/07/22 07:37:16;;;;;;;2.97;1.23;;;23.40;58.60;;;;;;5052473;28;20629;-66
2022/07/22 07:39:41;;;;;;;3.00;1.50;;;23.40;58.60;;;;;;5052833;28;20194;-67
2022/07/22 07:42:07;;;;;;;1.80;1.20;;;23.40;58.60;;;;;;5052751;28;20494;-66
2022/07/22 07:44:32;;;;;;;2.08;1.17;;;23.40;58.60;;;;;;5052091;28;20578;-66
2022/07/22 07:46:58;;;;;;;2.42;1.50;;;23.40;58.60;;;;;;5052623;28;20215;-66
2022/07/22 07:49:23;;;;;;;2.33;1.40;;;23.40;58.50;;;;;;5052736;28;20178;-66
2022/07/22 07:51:49;;;;;;;4.00;1.45;;;23.40;58.50;;;;;;5052095;28;20178;-66
2022/07/22 07:54:14;;;;;;;2.38;1.40;;;23.40;58.50;;;;;;5052521;28;20572;-66
2022/07/22 07:56:40;;;;;;;2.20;1.30;;;23.40;58.50;;;;;;5051850;28;20176;-66
2022/07/22 07:59:06;;;;;;;1.63;0.98;;;23.40;58.40;;;;;;5051272;28;20279;-66
2022/07/22 08:01:31;;;;;;;1.92;1.15;;;23.40;58.40;;;;;;5052524;28;20200;-66
2022/07/22 08:03:57;;;;;;;2.35;1.25;;;23.40;58.40;;;;;;5051782;28;20228;-67
2022/07/22 08:06:22;;;;;;;1.80;1.20;;;23.40;59.00;;;;;;5052433;28;20214;-67
2022/07/22 08:08:48;;;;;;;2.83;1.35;;;23.40;58.90;;;;;;5052178;28;20171;-66
2022/07/22 08:11:13;;;;;;;3.20;1.42;;;23.40;58.30;;;;;;5051545;28;20177;-66
2022/07/22 08:13:39;;;;;;;2.75;1.10;;;23.40;58.30;;;;;;5052066;28;20210;-66
2022/07/22 08:16:04;;;;;;;1.92;1.55;;;23.40;58.30;;;;;;5052131;28;20171;-66
2022/07/22 08:18:30;;;;;;;1.77;1.10;;;23.40;58.30;;;;;;5051675;28;20178;-66
2022/07/22 08:20:55;;;;;;;1.70;1.33;;;23.40;58.30;;;;;;5052205;28;20254;-66
2022/07/22 08:23:21;;;;;;;3.05;1.45;;;23.40;58.20;;;;;;5052073;28;20209;-66
2022/07/22 08:25:46;;;;;;;1.48;1.10;;;23.50;58.30;;;;;;5051219;28;20568;-67
2022/07/22 08:28:12;;;;;;;2.15;1.05;;;23.50;58.30;;;;;;5052175;28;20179;-64
2022/07/22 08:30:39;;;;;;;1.90;1.10;;;23.50;58.30;;;;;;5051825;28;20621;-65
2022/07/22 08:33:04;;;;;;;2.50;1.25;;;23.40;58.30;;;;;;5051504;28;20183;-65
2022/07/22 08:35:30;;;;;;;1.92;1.20;;;23.50;58.30;;;;;;5052212;28;20186;-65
2022/07/22 08:37:55;;;;;;;4.40;1.38;;;23.50;58.20;;;;;;5052139;28;20171;-66
2022/07/22 08:40:21;;;;;;;3.08;1.33;;;23.50;58.20;;;;;;5051257;28;20178;-65
2022/07/22 08:42:47;;;;;;;3.55;1.33;;;23.50;58.10;;;;;;5051816;28;20642;-66
2022/07/22 08:45:12;;;;;;;3.33;1.50;;;23.50;58.20;;;;;;5052242;28;20203;-65
2022/07/22 08:47:38;;;;;;;2.85;1.17;;;23.50;58.00;;;;;;5055479;28;20625;-65
2022/07/22 08:50:04;;;;;;;2.53;1.42;;;23.50;58.00;;;;;;5056275;28;20601;-66
2022/07/22 08:52:30;;;;;;;2.17;1.20;;;23.60;58.00;;;;;;5056289;28;20175;-66
2022/07/22 08:54:55;;;;;;;1.60;1.08;;;23.50;58.00;;;;;;5055032;28;20673;-67
2022/07/22 08:57:21;;;;;;;4.40;1.70;;;23.60;58.00;;;;;;5056042;28;20178;-64
2022/07/22 08:59:50;;;;;;;2.03;1.08;;;23.60;58.00;;;;;;5055691;28;20553;-66
2022/07/22 09:02:16;;;;;;;1.85;1.27;;;23.60;58.00;;;;;;5055259;28;20245;-66
2022/07/22 09:04:58;;;;;;;1.95;1.40;;;23.60;57.90;;;;;;5055858;28;20641;-65
2022/07/22 09:07:27;;;;;;;3.65;1.40;;;23.60;57.80;;;;;;5055008;28;20222;-66
2022/07/22 09:09:52;;;;;;;1.42;1.10;;;23.60;57.80;;;;;;5055677;28;20175;-66
2022/07/22 09:12:19;;;;;;;2.03;1.35;;;23.60;57.80;;;;;;5055527;28;20663;-66
2022/07/22 09:14:50;;;;;;;1.70;1.20;;;23.70;57.70;;;;;;5055002;28;20179;-66
2022/07/22 09:17:27;;;;;;;1.52;1.38;;;23.70;57.70;;;;;;5055741;28;20179;-67
2022/07/22 09:19:54;;;;;;;2.65;1.33;;;23.70;57.70;;;;;;5055591;28;20206;-67
2022/07/22 09:22:32;;;;;;;1.73;1.42;;;23.70;57.70;;;;;;5054795;28;20182;-67
2022/07/22 09:24:59;;;;;;;1.90;1.40;;;23.70;57.70;;;;;;5055289;28;20182;-66
2022/07/22 09:27:26;;;;;;;3.45;1.83;;;23.80;57.60;;;;;;5055472;28;20273;-67
2022/07/22 09:29:53;;;;;;;2.38;1.52;;;23.70;57.60;;;;;;5054774;28;20338;-67
2022/07/22 09:32:18;;;;;;;3.03;1.65;;;23.70;57.60;;;;;;5055477;28;20244;-67
2022/07/22 09:34:44;;;;;;;2.78;1.67;;;23.70;57.60;;;;;;5055190;28;20258;-68
2022/07/22 09:37:10;;;;;;;4.95;1.83;;;23.70;57.50;;;;;;5054539;28;20533;-67
2022/07/22 09:39:36;;;;;;;2.55;1.92;;;23.70;57.60;;;;;;5037341;28;20175;-69
2022/07/22 09:42:03;;;;;;;3.88;2.40;;;23.70;57.50;;;;;;5055096;28;20175;-67
2022/07/22 09:44:29;;;;;;;3.50;1.95;;;23.80;57.50;;;;;;5054656;28;20256;-68
2022/07/22 09:46:54;;;;;;;4.68;1.98;;;23.70;57.50;;;;;;5054896;28;20214;-67
2022/07/22 09:49:34;;;;;;;2.65;1.90;;;23.70;57.50;;;;;;5054382;28;20172;-67
2022/07/22 09:52:00;;;;;;;3.30;1.85;;;23.70;57.40;;;;;;5055085;28;20288;-68
2022/07/22 09:54:26;;;;;;;3.72;1.75;;;23.70;57.30;;;;;;5055016;28;20229;-67
2022/07/22 09:56:51;;;;;;;2.67;1.67;;;23.60;57.30;;;;;;5036305;28;20262;-67
2022/07/22 09:59:16;;;;;;;2.88;1.70;;;23.70;57.20;;;;;;5054846;28;20221;-67
2022/07/22 10:01:42;;;;;;;2.35;1.70;;;23.70;57.10;;;;;;5053577;28;20171;-68
2022/07/22 10:04:07;;;;;;;2.17;1.35;;;23.70;57.20;;;;;;5054089;28;20614;-68
2022/07/22 10:06:34;;;;;;;4.65;1.90;;;23.70;57.20;;;;;;5053498;28;20699;-67
2022/07/22 10:08:59;;;;;;;2.85;1.58;;;23.70;57.10;;;;;;5054530;28;20634;-67
2022/07/22 10:11:25;;;;;;;2.33;1.67;;;23.70;57.20;;;;;;5053798;28;20183;-67
2022/07/22 10:13:50;;;;;;;2.50;1.40;;;23.70;57.10;;;;;;5054467;28;20178;-67
2022/07/22 10:16:16;;;;;;;3.88;1.70;;;23.70;57.10;;;;;;5054557;28;20178;-67
2022/07/22 10:18:46;;;;;;;2.70;1.67;;;23.80;57.20;;;;;;5035755;28;20485;-67
2022/07/22 10:21:11;;;;;;;2.67;1.50;;;23.80;57.10;;;;;;5053350;28;20254;-67
2022/07/22 10:23:56;;;;;;;2.88;1.60;;;23.80;57.50;;;;;;5054625;28;20592;-67
2022/07/22 10:26:22;;;;;;;2.72;1.63;;;23.90;56.90;;;;;;5052242;28;20221;-67
2022/07/22 10:28:47;;;;;;;1.58;1.20;;;23.90;56.60;;;;;;5036002;28;20604;-67
2022/07/22 10:31:23;;;;;;;4.57;1.67;;;23.90;56.30;;;;;;5054160;28;20167;-67
2022/07/22 10:33:57;;;;;;;1.63;1.30;;;23.90;56.20;;;;;;5054110;28;20178;-68
2022/07/22 10:36:36;;;;;;;2.28;1.40;;;23.90;56.10;;;;;;5054318;28;20175;-67
2022/07/22 10:39:05;;;;;;;1.55;1.33;;;23.90;56.10;;;;;;5053203;28;20202;-67
2022/07/22 10:41:34;;;;;;;2.75;1.50;;;24.00;56.10;;;;;;5054034;28;20254;-67
2022/07/22 10:43:59;;;;;;;2.67;1.60;;;23.90;56.10;;;;;;5053806;28;20656;-67
2022/07/22 10:46:49;;;;;;;3.22;1.33;;;24.00;56.20;;;;;;5053277;28;20215;-66
2022/07/22 10:49:16;;;;;;;2.85;1.67;;;23.90;56.20;;;;;;5053688;28;20641;-66
2022/07/22 10:52:07;;;;;;;1.70;1.30;;;23.90;56.20;;;;;;5053698;28;20599;-66
2022/07/22 10:54:33;;;;;;;1.98;1.30;;;23.90;56.30;;;;;;5051816;28;20235;-66
2022/07/22 10:56:59;;;;;;;2.10;1.50;;;23.90;56.20;;;;;;5053812;28;20229;-67
2022/07/22 10:59:25;;;;;;;1.50;1.10;;;23.90;56.20;;;;;;5053792;28;20673;-67
2022/07/22 11:01:51;;;;;;;2.72;1.35;;;23.90;56.20;;;;;;5051412;28;20210;-67
2022/07/22 11:04:22;;;;;;;2.58;1.45;;;23.90;56.20;;;;;;5053580;28;20206;-67
2022/07/22 11:06:52;;;;;;;1.02;0.95;;;23.90;56.20;;;;;;5052454;28;20289;-67
2022/07/22 11:09:19;;;;;;;2.95;1.50;;;23.90;56.10;;;;;;5053053;28;20217;-67
2022/07/22 11:11:49;;;;;;;1.20;1.10;;;23.90;55.90;;;;;;5053434;28;20183;-67
2022/07/22 11:14:30;;;;;;;2.13;1.30;;;24.00;55.90;;;;;;5052706;28;20206;-67
2022/07/22 11:17:06;;;;;;;2.38;1.55;;;24.00;55.90;;;;;;5053219;28;20186;-69
2022/07/22 11:19:32;;;;;;;1.70;1.30;;;24.00;55.80;;;;;;5053623;28;20175;-68
2022/07/22 11:22:01;;;;;;;2.17;1.25;;;24.00;55.70;;;;;;5052336;28;20183;-68
2022/07/22 11:24:27;;;;;;;2.58;1.52;;;24.00;55.80;;;;;;5053504;28;20209;-67
2022/07/22 11:26:53;;;;;;;1.42;1.33;;;24.00;55.70;;;;;;5051812;28;20288;-67
2022/07/22 11:29:35;;;;;;;1.95;1.40;;;24.00;55.70;;;;;;5052471;28;20205;-67
2022/07/22 11:32:02;;;;;;;1.83;1.45;;;24.00;55.70;;;;;;5053013;28;20228;-67
2022/07/22 11:34:28;;;;;;;2.30;1.00;;;24.00;55.70;;;;;;5053254;28;20179;-68
2022/07/22 11:36:54;;;;;;;2.53;1.27;;;24.00;55.60;;;;;;5052023;28;20179;-68
2022/07/22 11:39:21;;;;;;;1.58;1.23;;;24.00;55.50;;;;;;5052805;28;20178;-67
2022/07/22 11:41:46;;;;;;;2.83;1.42;;;24.00;55.50;;;;;;5052085;28;20182;-68
2022/07/22 11:44:12;;;;;;;1.65;1.20;;;24.00;55.30;;;;;;5052774;28;20171;-67
2022/07/22 11:46:39;;;;;;;2.08;1.27;;;24.00;55.20;;;;;;5052793;28;20222;-67
2022/07/22 11:49:05;;;;;;;1.83;1.10;;;24.00;55.20;;;;;;5052126;28;20179;-67
2022/07/22 11:51:31;;;;;;;1.50;1.20;;;24.00;55.10;;;;;;5052809;28;20182;-66
2022/07/22 11:53:57;;;;;;;2.10;1.27;;;24.00;55.20;;;;;;5052449;28;20175;-68
2022/07/22 11:56:23;;;;;;;2.92;1.60;;;23.90;55.10;;;;;;5051929;28;20202;-67
2022/07/22 11:58:49;;;;;;;1.30;1.13;;;23.90;55.00;;;;;;5052365;28;20529;-68
2022/07/22 12:01:16;;;;;;;1.58;1.33;;;23.90;54.90;;;;;;5052796;28;20651;-67
2022/07/22 12:03:47;;;;;;;2.58;1.45;;;24.00;54.90;;;;;;5051771;28;20218;-67
2022/07/22 12:06:13;;;;;;;1.77;1.30;;;24.10;54.70;;;;;;5051242;28;20215;-68
2022/07/22 12:08:41;;;;;;;1.90;1.15;;;24.00;54.70;;;;;;5050930;28;20178;-67
2022/07/22 12:11:07;;;;;;;1.38;1.27;;;24.00;54.70;;;;;;5050486;28;20221;-67
2022/07/22 12:13:33;;;;;;;1.38;1.20;;;24.00;54.70;;;;;;5051132;28;20171;-68
2022/07/22 12:15:58;;;;;;;3.25;1.20;;;24.00;54.80;;;;;;5052334;28;20644;-68
2022/07/22 12:18:26;;;;;;;2.42;1.45;;;24.00;54.80;;;;;;5051760;28;20171;-68
2022/07/22 12:20:52;;;;;;;1.48;1.38;;;23.90;54.80;;;;;;5051252;28;20816;-68
2022/07/22 12:23:17;;;;;;;1.45;1.30;;;23.90;54.70;;;;;;5052190;28;20265;-67
2022/07/22 12:26:12;;;;;;;2.10;1.10;;;24.00;54.80;;;;;;5051189;28;20625;-67
2022/07/22 12:28:39;;;;;;;2.78;1.30;;;24.00;54.70;;;;;;5038934;28;20183;-67
2022/07/22 12:31:04;;;;;;;1.33;1.20;;;24.00;54.60;;;;;;5050286;28;20183;-67
2022/07/22 12:33:30;;;;;;;1.30;1.10;;;24.00;54.60;;;;;;5034328;28;20702;-67
2022/07/22 12:36:00;;;;;;;2.53;1.10;;;24.00;54.50;;;;;;5050714;28;20197;-68
2022/07/22 12:38:25;;;;;;;1.20;1.10;;;24.10;54.40;;;;;;5051277;28;20203;-68
2022/07/22 12:40:51;;;;;;;1.95;1.40;;;24.20;54.30;;;;;;5050945;28;20178;-68
2022/07/22 12:43:17;;;;;;;2.22;1.30;;;24.10;54.10;;;;;;5052161;28;20171;-71